Time;durP1;ratioP1;P1;durP2;ratioP2;P2;SDS_P1;SDS_P2;PMS_P1;PMS_P2;Temp;Humidity;BMP_temperature;BMP_pressure;BME280_temperature;BME280_humidity;BME280_pressure;Samples;Min_cycle;Max_cycle;Signal;HPM_P1;HPM_P2
2022/04/01 00:00:01;;;;;;;4.40;2.80;;;1.30;99.90;;;;;;5150972;27;20099;-82
2022/04/01 00:02:27;;;;;;;3.10;2.80;;;1.10;99.90;;;;;;5150178;27;20034;-81
2022/04/01 00:04:53;;;;;;;2.95;2.45;;;1.10;99.90;;;;;;5124104;27;20086;-82
2022/04/01 00:07:18;;;;;;;5.68;2.72;;;1.20;99.90;;;;;;5154851;27;20082;-82
2022/04/01 00:09:44;;;;;;;2.92;2.17;;;1.30;99.90;;;;;;5136423;27;20047;-82
2022/04/01 00:12:10;;;;;;;7.13;2.55;;;2.50;99.90;;;;;;5137539;27;20105;-82
2022/04/01 00:14:36;;;;;;;8.10;2.40;;;1.40;99.90;;;;;;5135731;27;20095;-82
2022/04/01 00:17:02;;;;;;;3.00;2.33;;;2.60;99.90;;;;;;5137085;27;20038;-82
2022/04/01 00:19:28;;;;;;;2.50;2.30;;;1.60;99.90;;;;;;5155279;27;20050;-81
2022/04/01 00:21:54;;;;;;;2.88;1.92;;;1.50;99.90;;;;;;5155025;27;20053;-82
2022/04/01 00:24:20;;;;;;;3.80;2.13;;;2.50;99.90;;;;;;5136626;27;20050;-83
2022/04/01 00:26:46;;;;;;;4.80;2.28;;;1.60;99.90;;;;;;5119466;27;20054;-83
2022/04/01 00:29:17;;;;;;;4.47;1.92;;;1.80;99.90;;;;;;5119743;27;20050;-82
2022/04/01 00:31:49;;;;;;;3.05;2.15;;;1.50;99.90;;;;;;5154851;27;20476;-84
2022/04/01 00:34:17;;;;;;;4.43;2.22;;;2.60;99.90;;;;;;5119488;27;20051;-82
2022/04/01 00:36:48;;;;;;;4.05;2.30;;;1.60;99.90;;;;;;5119222;27;20178;-83
2022/04/01 00:39:14;;;;;;;3.78;1.85;;;2.80;99.90;;;;;;5119513;27;20125;-84
2022/04/01 00:41:40;;;;;;;2.85;1.95;;;2.60;99.90;;;;;;5118627;27;20136;-82
2022/04/01 00:44:25;;;;;;;3.25;2.15;;;1.60;99.90;;;;;;5102465;27;20043;-83
2022/04/01 00:46:58;;;;;;;1.95;1.80;;;1.80;99.90;;;;;;5136208;27;20127;-84
2022/04/01 00:49:25;;;;;;;2.00;1.83;;;1.70;99.90;;;;;;5136892;27;20390;-82
2022/04/01 00:51:51;;;;;;;2.38;2.17;;;2.90;99.90;;;;;;5118547;27;20054;-82
2022/04/01 00:54:17;;;;;;;2.17;2.00;;;1.80;99.90;;;;;;5118736;27;20537;-83
2022/04/01 00:56:44;;;;;;;3.00;2.20;;;1.60;99.90;;;;;;5135002;27;20167;-83
2022/04/01 00:59:09;;;;;;;2.30;2.05;;;1.70;99.90;;;;;;5101729;27;20042;-82
2022/04/01 01:01:36;;;;;;;3.85;2.45;;;2.40;99.90;;;;;;5135797;27;20061;-82
2022/04/01 01:04:05;;;;;;;5.35;2.17;;;1.70;99.90;;;;;;5119319;27;20403;-84
2022/04/01 01:06:31;;;;;;;3.33;2.15;;;1.70;99.90;;;;;;5131596;27;20043;-83
2022/04/01 01:08:57;;;;;;;4.80;2.08;;;2.80;99.90;;;;;;5141220;27;20043;-83
2022/04/01 01:11:25;;;;;;;4.93;2.13;;;1.90;99.90;;;;;;5118627;27;20089;-83
2022/04/01 01:13:51;;;;;;;2.78;2.30;;;2.10;99.90;;;;;;5135596;27;20113;-83
2022/04/01 01:16:17;;;;;;;1.73;1.60;;;2.40;99.90;;;;;;5117766;27;20089;-83
2022/04/01 01:18:43;;;;;;;3.17;2.10;;;1.80;99.90;;;;;;5143644;27;20055;-82
2022/04/01 01:21:09;;;;;;;2.42;2.22;;;2.00;99.90;;;;;;5128126;27;20066;-82
2022/04/01 01:23:36;;;;;;;3.47;2.35;;;2.10;99.90;;;;;;5119583;27;20501;-84
2022/04/01 01:26:02;;;;;;;3.17;2.08;;;2.70;99.90;;;;;;5142983;27;20055;-83
2022/04/01 01:28:28;;;;;;;2.22;2.03;;;2.00;99.90;;;;;;5149021;27;20061;-84
2022/04/01 01:30:54;;;;;;;2.50;2.30;;;2.10;99.90;;;;;;5134719;27;20406;-82
2022/04/01 01:33:21;;;;;;;5.20;2.10;;;1.90;99.90;;;;;;5154473;27;20046;-85
2022/04/01 01:35:47;;;;;;;3.08;2.25;;;1.90;99.90;;;;;;5101551;27;20050;-83
2022/04/01 01:38:19;;;;;;;4.45;2.30;;;1.80;99.90;;;;;;5101883;27;20383;-85
2022/04/01 01:40:45;;;;;;;5.80;2.40;;;1.90;99.90;;;;;;5118352;27;20054;-86
2022/04/01 01:43:11;;;;;;;2.92;2.45;;;2.80;99.90;;;;;;5114239;27;20034;-83
2022/04/01 01:45:37;;;;;;;3.58;2.03;;;1.70;99.90;;;;;;5125131;27;20049;-82
2022/04/01 01:48:03;;;;;;;3.45;2.55;;;1.60;99.90;;;;;;5134385;27;20039;-88
2022/04/01 01:55:57;;;;;;;3.55;2.20;;;1.70;99.90;;;;;;5113917;27;20054;-83
2022/04/01 01:58:23;;;;;;;2.00;1.83;;;2.50;99.90;;;;;;5131626;27;20039;-83
2022/04/01 02:00:49;;;;;;;6.93;2.65;;;1.70;99.90;;;;;;5116630;27;20073;-83
2022/04/01 02:03:15;;;;;;;4.72;2.67;;;1.80;99.90;;;;;;5145225;27;20391;-83
2022/04/01 02:05:41;;;;;;;3.25;2.17;;;3.50;99.90;;;;;;5113539;27;20049;-82
2022/04/01 02:08:06;;;;;;;5.85;2.42;;;1.70;99.90;;;;;;5134013;27;20051;-82
2022/04/01 02:10:32;;;;;;;3.65;2.55;;;2.50;99.90;;;;;;5152836;27;20125;-83
2022/04/01 02:12:58;;;;;;;2.63;2.42;;;3.00;99.90;;;;;;5133799;27;20048;-84
2022/04/01 02:15:27;;;;;;;4.47;2.65;;;1.60;99.90;;;;;;5130852;27;20117;-83
2022/04/01 02:17:53;;;;;;;3.85;2.20;;;1.50;99.90;;;;;;5133367;27;20039;-83
2022/04/01 02:20:18;;;;;;;2.97;2.65;;;2.10;99.90;;;;;;5152141;27;20094;-83
2022/04/01 02:22:44;;;;;;;2.63;2.38;;;1.50;99.90;;;;;;5117188;27;20046;-83
2022/04/01 02:25:13;;;;;;;2.88;1.98;;;1.60;99.90;;;;;;5135043;27;20047;-85
2022/04/01 02:27:39;;;;;;;2.45;2.22;;;1.80;99.90;;;;;;5117695;27;20054;-83
2022/04/01 02:30:11;;;;;;;3.70;2.47;;;2.50;99.90;;;;;;5133686;27;20071;-83
2022/04/01 02:32:40;;;;;;;4.20;2.50;;;1.70;99.90;;;;;;5118490;27;20443;-83
2022/04/01 02:35:07;;;;;;;5.78;2.47;;;2.20;99.90;;;;;;5119944;27;20266;-82
2022/04/01 02:37:33;;;;;;;2.00;1.88;;;1.60;99.90;;;;;;5097375;27;20501;-83
2022/04/01 02:39:59;;;;;;;2.63;2.42;;;1.70;99.90;;;;;;5096633;27;20047;-83
2022/04/01 02:42:25;;;;;;;2.83;2.15;;;1.80;99.90;;;;;;5113363;27;20455;-83
2022/04/01 02:44:50;;;;;;;1.98;1.75;;;2.00;99.90;;;;;;5131682;27;20527;-84
2022/04/01 02:47:16;;;;;;;3.67;1.98;;;1.90;99.90;;;;;;5112849;27;20372;-84
2022/04/01 02:49:42;;;;;;;2.97;1.85;;;3.00;99.90;;;;;;5099951;27;20051;-84
2022/04/01 02:52:08;;;;;;;3.60;2.13;;;1.70;99.90;;;;;;5099606;27;20415;-82
2022/04/01 02:54:34;;;;;;;6.60;2.60;;;1.70;99.90;;;;;;5152954;27;20047;-83
2022/04/01 02:57:02;;;;;;;2.05;1.70;;;1.70;99.90;;;;;;5133973;27;20055;-83
2022/04/01 02:59:28;;;;;;;2.10;1.83;;;1.80;99.90;;;;;;5134381;27;20125;-83
2022/04/01 03:01:54;;;;;;;2.67;1.90;;;3.00;99.90;;;;;;5153312;27;20047;-84
2022/04/01 03:04:19;;;;;;;2.78;1.88;;;1.80;99.90;;;;;;5127034;27;20095;-84
2022/04/01 03:06:45;;;;;;;2.90;2.20;;;1.80;99.90;;;;;;5149051;27;20065;-82
2022/04/01 03:09:11;;;;;;;2.42;1.73;;;1.90;99.90;;;;;;5149289;27;20099;-82
2022/04/01 03:11:37;;;;;;;2.47;2.17;;;1.90;99.90;;;;;;5168374;27;20050;-83
2022/04/01 03:14:04;;;;;;;1.73;1.63;;;2.70;99.90;;;;;;5109640;27;20039;-84
2022/04/01 03:16:29;;;;;;;3.88;1.95;;;1.90;99.90;;;;;;5118255;27;20046;-83
2022/04/01 03:18:59;;;;;;;3.20;2.40;;;2.10;99.90;;;;;;5134630;27;20073;-83
2022/04/01 03:21:25;;;;;;;2.03;1.80;;;1.90;99.90;;;;;;5135175;27;20045;-84
2022/04/01 03:23:51;;;;;;;4.85;2.00;;;2.00;99.90;;;;;;5117880;27;20042;-84
2022/04/01 03:26:17;;;;;;;4.47;2.33;;;3.00;99.90;;;;;;5116910;27;20086;-83
2022/04/01 03:28:42;;;;;;;3.05;1.77;;;2.00;99.90;;;;;;5134433;27;20082;-84
2022/04/01 03:31:09;;;;;;;2.15;1.83;;;2.80;99.90;;;;;;5117031;27;20133;-84
2022/04/01 03:33:36;;;;;;;2.20;2.00;;;2.10;99.90;;;;;;5141856;27;20054;-83
2022/04/01 03:36:02;;;;;;;2.63;1.52;;;1.90;99.90;;;;;;5114433;27;20046;-84
2022/04/01 03:38:27;;;;;;;1.75;1.65;;;1.90;99.90;;;;;;5116925;27;20042;-83
2022/04/01 03:40:53;;;;;;;1.85;1.70;;;2.10;99.90;;;;;;5103185;27;20398;-83
2022/04/01 03:43:21;;;;;;;4.00;1.95;;;1.90;99.90;;;;;;5137384;27;20043;-83
2022/04/01 03:45:48;;;;;;;5.68;2.13;;;2.20;99.90;;;;;;5103532;27;20050;-83
2022/04/01 03:48:34;;;;;;;5.30;2.17;;;1.90;99.90;;;;;;5119624;27;20461;-83
2022/04/01 03:50:59;;;;;;;5.63;1.98;;;2.50;99.90;;;;;;5136757;27;20478;-83
2022/04/01 03:53:29;;;;;;;5.93;1.90;;;2.90;99.90;;;;;;5155647;27;20047;-83
2022/04/01 03:55:56;;;;;;;5.32;2.25;;;2.40;99.90;;;;;;5103657;27;20053;-82
2022/04/01 03:58:27;;;;;;;2.17;1.42;;;2.10;99.90;;;;;;5119846;27;20509;-83
2022/04/01 04:00:53;;;;;;;3.47;1.88;;;2.00;99.90;;;;;;5137954;27;20050;-82
2022/04/01 04:03:19;;;;;;;2.05;1.70;;;3.60;99.90;;;;;;5137724;27;20099;-81
2022/04/01 04:05:45;;;;;;;1.58;1.48;;;2.40;99.90;;;;;;5143282;27;20039;-82
2022/04/01 04:08:11;;;;;;;7.30;2.35;;;2.30;99.90;;;;;;5131930;27;20042;-83
2022/04/01 04:10:37;;;;;;;2.80;1.65;;;3.20;99.90;;;;;;5138299;27;20511;-84
2022/04/01 04:13:04;;;;;;;3.17;1.63;;;3.10;99.90;;;;;;5121197;27;20124;-83
2022/04/01 04:16:11;;;;;;;5.68;2.13;;;3.10;99.90;;;;;;5120925;27;20467;-83
2022/04/01 04:18:52;;;;;;;2.67;1.65;;;2.30;99.90;;;;;;5054992;28;20816;-83
2022/04/01 04:21:28;;;;;;;6.22;2.00;;;3.50;99.90;;;;;;5055092;28;20534;-83
2022/04/01 04:23:58;;;;;;;2.67;1.77;;;2.50;99.90;;;;;;5109780;27;20055;-83
2022/04/01 04:26:46;;;;;;;4.70;2.00;;;2.30;99.90;;;;;;5118047;27;20043;-83
2022/04/01 04:29:13;;;;;;;3.92;1.83;;;2.30;99.90;;;;;;5116778;27;20035;-83
2022/04/01 04:31:57;;;;;;;3.40;2.03;;;3.00;99.90;;;;;;5138070;27;20042;-83
2022/04/01 04:34:22;;;;;;;2.47;1.60;;;2.30;99.90;;;;;;5153533;27;20049;-83
2022/04/01 04:36:49;;;;;;;2.92;1.73;;;2.40;99.90;;;;;;5109214;27;20046;-84
2022/04/01 04:39:16;;;;;;;3.03;1.70;;;2.40;99.90;;;;;;5102525;27;20046;-84
2022/04/01 04:41:43;;;;;;;5.07;1.83;;;2.40;99.90;;;;;;5119655;27;20047;-83
2022/04/01 04:44:09;;;;;;;3.22;1.92;;;2.40;99.90;;;;;;5119503;27;20045;-83
2022/04/01 04:46:35;;;;;;;2.53;1.30;;;2.40;99.90;;;;;;5102858;27;20062;-83
2022/04/01 04:49:01;;;;;;;2.95;1.60;;;2.80;99.90;;;;;;5136759;27;20047;-84
2022/04/01 04:51:28;;;;;;;3.85;1.70;;;2.50;99.90;;;;;;5101911;27;20043;-83
2022/04/01 04:53:56;;;;;;;1.67;1.20;;;2.30;99.90;;;;;;5115798;27;20066;-83
2022/04/01 04:56:22;;;;;;;3.95;1.50;;;1.80;99.90;;;;;;5115938;27;20057;-82
2022/04/01 04:58:47;;;;;;;2.67;1.75;;;2.60;99.90;;;;;;5115642;27;20076;-84
2022/04/01 05:01:44;;;;;;;7.35;1.35;;;3.00;99.90;;;;;;5132868;27;20058;-84
2022/04/01 05:04:39;;;;;;;3.22;1.58;;;2.60;99.90;;;;;;5133450;27;20084;-83
2022/04/01 05:07:08;;;;;;;1.40;1.10;;;2.60;99.90;;;;;;5132347;27;20486;-83
2022/04/01 05:09:53;;;;;;;4.45;1.42;;;2.60;99.90;;;;;;5133059;27;20090;-83
2022/04/01 05:12:25;;;;;;;2.40;1.98;;;2.70;99.90;;;;;;5115194;27;20057;-82
2022/04/01 05:15:08;;;;;;;1.95;1.30;;;2.50;99.90;;;;;;5098683;27;20047;-83
2022/04/01 05:17:56;;;;;;;3.00;1.65;;;2.60;99.90;;;;;;5134344;27;20043;-84
2022/04/01 05:20:34;;;;;;;5.60;1.58;;;2.50;99.90;;;;;;5123902;27;20055;-84
2022/04/01 05:23:13;;;;;;;2.50;1.38;;;2.70;99.90;;;;;;5132581;27;20517;-83
2022/04/01 05:25:46;;;;;;;3.35;1.55;;;3.90;99.90;;;;;;5115510;27;20558;-83
2022/04/01 05:28:34;;;;;;;2.78;1.73;;;3.00;99.90;;;;;;5082829;27;20432;-83
2022/04/01 05:31:10;;;;;;;2.60;1.38;;;3.50;99.90;;;;;;5115667;27;20086;-84
2022/04/01 05:33:51;;;;;;;2.30;1.63;;;2.60;99.90;;;;;;5115992;27;20058;-83
2022/04/01 05:36:17;;;;;;;3.85;1.45;;;2.50;99.90;;;;;;5115027;27;20047;-84
2022/04/01 05:38:43;;;;;;;3.88;1.50;;;2.40;99.90;;;;;;5114902;27;20479;-84
2022/04/01 05:41:09;;;;;;;2.42;1.33;;;2.90;99.90;;;;;;5097606;27;20054;-86
2022/04/01 05:43:34;;;;;;;2.67;1.30;;;2.60;99.90;;;;;;5113178;27;20483;-84
2022/04/01 05:46:00;;;;;;;2.13;1.65;;;3.10;99.90;;;;;;5113756;27;20058;-83
2022/04/01 05:48:27;;;;;;;2.22;1.80;;;2.70;99.90;;;;;;5097230;27;20043;-83
2022/04/01 05:50:52;;;;;;;2.65;1.38;;;2.70;99.90;;;;;;5097707;27;20390;-83
2022/04/01 05:53:20;;;;;;;3.30;1.60;;;2.70;99.90;;;;;;5113400;27;20497;-83
2022/04/01 05:55:46;;;;;;;3.42;1.45;;;2.90;99.90;;;;;;5114340;27;20039;-83
2022/04/01 05:58:11;;;;;;;5.90;1.70;;;3.60;99.90;;;;;;5131780;27;20039;-84
2022/04/01 06:00:55;;;;;;;6.03;1.85;;;2.80;99.90;;;;;;5114913;27;20096;-84
2022/04/01 06:03:29;;;;;;;2.38;1.55;;;2.80;99.90;;;;;;5098171;27;20096;-82
2022/04/01 06:06:03;;;;;;;3.58;1.55;;;3.00;99.90;;;;;;5114698;27;20039;-83
2022/04/01 06:08:55;;;;;;;2.83;1.55;;;2.70;99.90;;;;;;5130853;27;20470;-82
2022/04/01 06:11:52;;;;;;;4.82;1.55;;;2.90;99.90;;;;;;5101233;27;20487;-83
2022/04/01 06:14:31;;;;;;;3.58;1.70;;;2.90;99.90;;;;;;5087641;27;20122;-83
2022/04/01 06:17:05;;;;;;;2.35;1.48;;;3.10;99.90;;;;;;5098832;27;20047;-83
2022/04/01 06:19:46;;;;;;;2.20;1.97;;;4.00;99.90;;;;;;5114004;27;20047;-82
2022/04/01 06:22:20;;;;;;;1.38;1.27;;;3.70;99.90;;;;;;5114656;27;20443;-81
2022/04/01 06:25:13;;;;;;;1.85;1.50;;;3.40;99.90;;;;;;5121551;27;20035;-82
2022/04/01 06:27:48;;;;;;;5.18;1.85;;;2.90;99.90;;;;;;5136130;27;20049;-82
2022/04/01 06:30:18;;;;;;;2.25;1.40;;;2.90;99.90;;;;;;5138671;27;20051;-83
2022/04/01 06:33:11;;;;;;;2.65;1.88;;;3.10;99.90;;;;;;5125057;27;20057;-82
2022/04/01 06:35:47;;;;;;;1.95;1.55;;;2.90;99.90;;;;;;5102766;27;20051;-82
2022/04/01 06:38:13;;;;;;;2.67;1.48;;;3.10;99.90;;;;;;5104420;27;20539;-82
2022/04/01 06:40:59;;;;;;;6.78;2.08;;;3.80;99.90;;;;;;5081459;27;20054;-82
2022/04/01 06:43:24;;;;;;;1.90;1.70;;;3.10;99.90;;;;;;5097465;28;20206;-84
2022/04/01 06:45:50;;;;;;;2.63;1.38;;;4.00;99.90;;;;;;5114096;27;20139;-83
2022/04/01 06:48:16;;;;;;;7.15;2.47;;;3.10;99.90;;;;;;5113763;28;20055;-83
2022/04/01 06:50:49;;;;;;;2.92;1.70;;;3.90;99.90;;;;;;5079459;28;20066;-83
2022/04/01 06:53:16;;;;;;;3.22;1.90;;;3.20;99.90;;;;;;5130540;27;20063;-82
2022/04/01 06:55:42;;;;;;;3.58;1.60;;;3.60;99.90;;;;;;5130586;28;20055;-82
2022/04/01 06:58:11;;;;;;;4.45;1.35;;;3.10;99.90;;;;;;5130903;28;20155;-83
2022/04/01 07:00:40;;;;;;;1.65;1.30;;;3.20;99.90;;;;;;5113933;28;20059;-83
2022/04/01 07:03:07;;;;;;;1.55;1.45;;;3.20;99.90;;;;;;5098267;28;20058;-82
2022/04/01 07:05:34;;;;;;;4.38;2.10;;;3.20;99.90;;;;;;5113531;28;20124;-83
2022/04/01 07:08:01;;;;;;;3.67;1.85;;;3.10;99.90;;;;;;5130725;28;20412;-80
2022/04/01 07:10:27;;;;;;;4.97;1.63;;;2.90;99.90;;;;;;5113088;28;20051;-81
2022/04/01 07:12:52;;;;;;;1.83;1.40;;;3.90;99.90;;;;;;5079851;27;20047;-82
2022/04/01 07:15:18;;;;;;;2.38;1.60;;;3.10;99.90;;;;;;5099126;27;20047;-81
2022/04/01 07:17:44;;;;;;;3.50;1.70;;;3.10;99.90;;;;;;5134317;27;20097;-82
2022/04/01 07:20:12;;;;;;;1.58;1.35;;;3.60;99.90;;;;;;5118002;27;20390;-82
2022/04/01 07:22:39;;;;;;;3.97;1.95;;;3.20;99.90;;;;;;5117365;27;20104;-84
2022/04/01 07:25:05;;;;;;;1.92;1.42;;;3.60;99.90;;;;;;5134616;27;20121;-83
2022/04/01 07:27:31;;;;;;;3.03;1.42;;;2.90;99.90;;;;;;5133934;27;20810;-82
2022/04/01 07:29:56;;;;;;;2.78;1.33;;;3.50;99.90;;;;;;5134384;27;20397;-81
2022/04/01 07:32:34;;;;;;;3.38;1.83;;;2.90;99.90;;;;;;5135014;27;20129;-82
2022/04/01 07:35:01;;;;;;;6.35;2.58;;;3.90;99.90;;;;;;5114145;27;20051;-82
2022/04/01 07:37:27;;;;;;;1.83;1.60;;;2.70;99.90;;;;;;5104251;27;20051;-81
2022/04/01 07:39:54;;;;;;;6.55;1.95;;;2.70;99.90;;;;;;5135768;27;20479;-82
2022/04/01 07:42:21;;;;;;;2.20;1.92;;;3.20;99.90;;;;;;5126679;27;20086;-82
2022/04/01 07:44:47;;;;;;;2.97;1.70;;;2.70;99.90;;;;;;5136520;27;20558;-82
2022/04/01 07:47:14;;;;;;;5.65;2.35;;;4.30;99.90;;;;;;5116799;27;20487;-83
2022/04/01 07:49:41;;;;;;;2.10;1.90;;;2.90;99.90;;;;;;5117388;27;20161;-83
2022/04/01 07:52:08;;;;;;;3.13;2.00;;;4.10;99.90;;;;;;5118682;27;20124;-83
2022/04/01 07:54:35;;;;;;;3.25;1.70;;;2.50;99.90;;;;;;5082807;28;20051;-83
2022/04/01 07:57:01;;;;;;;4.13;2.33;;;2.50;99.90;;;;;;5114501;28;20495;-83
2022/04/01 07:59:27;;;;;;;2.55;1.67;;;2.50;99.90;;;;;;5113018;28;20070;-81
2022/04/01 08:01:53;;;;;;;6.13;2.80;;;3.60;99.90;;;;;;5114920;28;20059;-82
2022/04/01 08:04:19;;;;;;;2.38;2.00;;;2.70;99.90;;;;;;5128042;28;20031;-82
2022/04/01 08:06:44;;;;;;;2.50;2.30;;;3.00;99.90;;;;;;5130725;27;20408;-82
2022/04/01 08:09:10;;;;;;;2.90;2.60;;;2.70;99.90;;;;;;5118100;27;20484;-82
2022/04/01 08:11:36;;;;;;;8.75;3.45;;;2.70;99.90;;;;;;5122232;27;20116;-82
2022/04/01 08:14:02;;;;;;;6.18;3.67;;;2.80;99.90;;;;;;5126711;27;20051;-82
2022/04/01 08:16:28;;;;;;;5.28;3.67;;;3.90;99.90;;;;;;5139408;27;20046;-83
2022/04/01 08:18:53;;;;;;;5.95;4.07;;;2.30;99.90;;;;;;5129215;27;20150;-82
2022/04/01 08:21:19;;;;;;;6.75;4.00;;;3.20;99.90;;;;;;5132362;27;20043;-84
2022/04/01 08:23:45;;;;;;;4.50;3.60;;;3.30;99.90;;;;;;5094858;27;20093;-83
2022/04/01 08:26:11;;;;;;;4.90;4.18;;;3.00;99.90;;;;;;5126764;27;20436;-84
2022/04/01 08:28:37;;;;;;;3.75;3.22;;;3.10;99.90;;;;;;5110909;27;20039;-84
2022/04/01 08:31:03;;;;;;;4.05;3.65;;;3.00;99.90;;;;;;5132789;27;20848;-84
2022/04/01 08:33:29;;;;;;;5.85;4.63;;;3.70;99.90;;;;;;5098334;27;20770;-84
2022/04/01 08:35:54;;;;;;;7.68;4.50;;;3.00;99.90;;;;;;5097559;27;20058;-84
2022/04/01 08:38:20;;;;;;;6.95;4.28;;;3.00;99.90;;;;;;5111834;27;20044;-84
2022/04/01 08:40:46;;;;;;;4.85;3.85;;;3.00;99.90;;;;;;5130603;27;20470;-82
2022/04/01 08:43:11;;;;;;;5.75;4.57;;;3.60;99.90;;;;;;5135300;27;20528;-83
2022/04/01 08:45:37;;;;;;;6.43;3.97;;;3.00;99.90;;;;;;5132696;27;20047;-83
2022/04/01 08:48:04;;;;;;;6.07;4.78;;;3.10;99.90;;;;;;5131058;27;20467;-85
2022/04/01 08:50:30;;;;;;;8.23;4.78;;;3.30;99.90;;;;;;5096492;27;20042;-86
2022/04/01 08:52:56;;;;;;;8.73;5.38;;;3.10;99.90;;;;;;5099323;27;20051;-84
2022/04/01 08:55:22;;;;;;;4.97;3.63;;;3.70;99.90;;;;;;5128423;27;20077;-83
2022/04/01 08:57:47;;;;;;;11.65;5.72;;;3.20;99.90;;;;;;5132006;27;20126;-83
2022/04/01 09:00:13;;;;;;;8.13;4.55;;;3.30;99.90;;;;;;5133247;27;20118;-85
2022/04/01 09:02:39;;;;;;;6.63;5.05;;;3.90;99.90;;;;;;5130333;27;20048;-83
2022/04/01 09:05:06;;;;;;;8.23;5.07;;;3.50;99.90;;;;;;5117089;27;20053;-83
2022/04/01 09:07:31;;;;;;;7.75;5.57;;;3.40;99.90;;;;;;5136951;27;20118;-84
2022/04/01 09:10:05;;;;;;;6.93;5.38;;;4.30;99.90;;;;;;5105607;27;20130;-83
2022/04/01 09:12:31;;;;;;;7.70;4.68;;;3.20;99.90;;;;;;5151930;27;20042;-85
2022/04/01 09:14:57;;;;;;;6.68;4.72;;;3.50;99.90;;;;;;5110975;27;20076;-84
2022/04/01 09:17:23;;;;;;;6.22;4.38;;;3.60;99.90;;;;;;5108818;27;20051;-83
2022/04/01 09:19:49;;;;;;;6.82;4.95;;;3.60;99.90;;;;;;5094420;27;20047;-85
2022/04/01 09:22:25;;;;;;;7.63;4.82;;;3.20;99.90;;;;;;5118752;27;20043;-84
2022/04/01 09:25:05;;;;;;;5.97;4.20;;;3.30;99.90;;;;;;5119879;27;20054;-84
2022/04/01 09:27:53;;;;;;;7.50;5.53;;;3.40;99.90;;;;;;5116971;27;20047;-84
2022/04/01 09:30:24;;;;;;;6.30;4.82;;;3.30;99.90;;;;;;5118111;27;20122;-83
2022/04/01 09:32:55;;;;;;;7.20;5.10;;;3.70;99.90;;;;;;5148269;27;20042;-80
2022/04/01 09:35:26;;;;;;;6.40;5.03;;;3.50;99.90;;;;;;5081878;27;20138;-83
2022/04/01 09:37:54;;;;;;;8.07;5.88;;;3.40;99.90;;;;;;5132966;27;20038;-82
2022/04/01 09:40:22;;;;;;;11.40;5.07;;;3.60;99.90;;;;;;5131120;27;20042;-83
2022/04/01 09:42:50;;;;;;;9.13;4.68;;;3.60;99.90;;;;;;5128902;27;20031;-81
2022/04/01 09:45:24;;;;;;;7.65;5.53;;;4.00;99.90;;;;;;5139256;27;20123;-82
2022/04/01 09:48:06;;;;;;;6.43;4.47;;;3.70;99.90;;;;;;5134760;27;20046;-83
2022/04/01 09:50:39;;;;;;;4.47;3.63;;;3.80;99.90;;;;;;5113997;27;20114;-84
2022/04/01 09:53:09;;;;;;;8.05;4.15;;;3.90;99.90;;;;;;5114377;27;20059;-82
2022/04/01 09:55:43;;;;;;;4.97;4.07;;;3.70;99.90;;;;;;5132472;27;20047;-83
2022/04/01 09:58:09;;;;;;;3.23;2.90;;;3.80;99.90;;;;;;5116782;27;20572;-83
2022/04/01 10:00:37;;;;;;;4.85;3.55;;;4.20;99.90;;;;;;5124073;27;20292;-82
2022/04/01 10:03:03;;;;;;;5.72;4.35;;;4.20;99.90;;;;;;5102355;27;20047;-83
2022/04/01 10:05:29;;;;;;;5.30;3.83;;;4.10;99.90;;;;;;5116730;27;20054;-83
2022/04/01 10:07:56;;;;;;;4.30;3.22;;;4.90;99.90;;;;;;5097982;27;20467;-86
2022/04/01 10:10:22;;;;;;;5.95;4.38;;;4.30;99.90;;;;;;5100439;27;20139;-82
2022/04/01 10:12:48;;;;;;;5.05;4.30;;;4.30;99.90;;;;;;5130680;27;20036;-81
2022/04/01 10:15:15;;;;;;;6.05;3.45;;;4.10;99.90;;;;;;5119432;27;20054;-82
2022/04/01 10:17:41;;;;;;;3.15;2.88;;;4.00;99.90;;;;;;5122470;27;20486;-84
2022/04/01 10:20:08;;;;;;;5.72;3.65;;;3.80;99.90;;;;;;5105010;27;20554;-83
2022/04/01 10:22:35;;;;;;;6.00;3.38;;;3.60;99.90;;;;;;5125057;27;20038;-83
2022/04/01 10:25:26;;;;;;;4.57;3.08;;;3.60;99.90;;;;;;5141762;27;20053;-83
2022/04/01 10:27:52;;;;;;;10.50;3.28;;;3.80;99.90;;;;;;5109427;27;20050;-82
2022/04/01 10:30:19;;;;;;;4.05;2.63;;;3.60;99.90;;;;;;5102838;27;20187;-84
2022/04/01 10:32:47;;;;;;;5.90;2.70;;;3.60;99.90;;;;;;5116569;27;20050;-83
2022/04/01 10:35:37;;;;;;;4.15;2.83;;;3.60;99.90;;;;;;5096980;27;20054;-82
2022/04/01 10:38:06;;;;;;;3.65;2.88;;;3.80;99.90;;;;;;5118370;27;20141;-80
2022/04/01 10:40:32;;;;;;;3.22;2.47;;;3.60;99.90;;;;;;5146684;27;20053;-83
2022/04/01 10:43:11;;;;;;;2.83;2.28;;;3.50;99.90;;;;;;5148616;27;20038;-83
2022/04/01 10:45:38;;;;;;;4.72;3.03;;;3.90;99.90;;;;;;5115006;27;20074;-82
2022/04/01 10:51:36;;;;;;;4.95;3.00;;;3.50;99.90;;;;;;5102212;27;20039;-83
2022/04/01 10:54:22;;;;;;;4.53;3.15;;;3.30;99.90;;;;;;5118591;27;20051;-83
2022/04/01 10:56:55;;;;;;;2.60;2.40;;;3.30;99.90;;;;;;5117268;27;20073;-84
2022/04/01 10:59:27;;;;;;;4.55;2.50;;;4.30;99.90;;;;;;5129610;27;20393;-83
2022/04/01 11:01:53;;;;;;;5.15;3.05;;;3.60;99.90;;;;;;5131806;27;20043;-83
2022/04/01 11:04:19;;;;;;;6.13;3.15;;;3.50;99.90;;;;;;5122594;27;20066;-83
2022/04/01 11:06:52;;;;;;;7.13;2.53;;;4.00;99.90;;;;;;5131462;27;20129;-82
2022/04/01 11:09:36;;;;;;;4.72;2.72;;;4.10;99.90;;;;;;5129621;27;20038;-83
2022/04/01 11:15:08;;;;;;;2.47;2.15;;;4.10;99.90;;;;;;5132258;27;20433;-82
2022/04/01 11:17:34;;;;;;;2.45;1.90;;;4.20;99.90;;;;;;5152747;27;20046;-82
2022/04/01 11:20:05;;;;;;;3.28;1.80;;;4.40;99.90;;;;;;5157220;27;20018;-84
2022/04/01 11:22:47;;;;;;;2.40;2.20;;;4.30;99.90;;;;;;5169641;27;20073;-83
2022/04/01 11:25:14;;;;;;;1.73;1.63;;;4.40;99.90;;;;;;5132912;27;20043;-82
2022/04/01 11:28:01;;;;;;;6.22;2.00;;;4.60;99.90;;;;;;5113178;28;20066;-84
2022/04/01 11:30:34;;;;;;;2.10;1.75;;;4.30;99.90;;;;;;5109499;28;20047;-83
2022/04/01 11:33:05;;;;;;;1.85;1.27;;;4.50;99.90;;;;;;5099673;28;20111;-84
2022/04/01 11:35:32;;;;;;;2.38;1.52;;;5.10;99.90;;;;;;5092948;28;20058;-83
2022/04/01 11:37:58;;;;;;;5.20;2.53;;;4.90;99.90;;;;;;5111511;28;20059;-85
2022/04/01 11:40:33;;;;;;;2.30;1.40;;;4.30;99.90;;;;;;5094970;28;20439;-85
2022/04/01 11:43:04;;;;;;;3.00;2.10;;;4.40;99.90;;;;;;5111900;28;20043;-83
2022/04/01 11:45:37;;;;;;;2.35;2.00;;;4.20;99.90;;;;;;5080196;28;20051;-83
2022/04/01 11:48:34;;;;;;;3.67;1.70;;;3.80;99.90;;;;;;5095396;28;20047;-85
2022/04/01 11:51:14;;;;;;;2.75;1.67;;;3.70;99.90;;;;;;5079173;28;20088;-83
2022/04/01 11:53:49;;;;;;;2.47;1.65;;;3.70;99.90;;;;;;5129097;27;20051;-84
2022/04/01 11:56:19;;;;;;;4.03;1.98;;;3.80;99.90;;;;;;5110037;28;20059;-83
2022/04/01 11:58:47;;;;;;;6.45;2.28;;;4.00;99.90;;;;;;5094903;28;20047;-83
2022/04/01 12:01:15;;;;;;;2.85;1.90;;;4.20;99.90;;;;;;5131492;27;20058;-83
2022/04/01 12:03:41;;;;;;;4.05;2.33;;;4.10;99.90;;;;;;5098119;27;20439;-83
2022/04/01 12:09:03;;;;;;;5.65;1.88;;;4.30;99.90;;;;;;5059787;27;20049;-83
2022/04/01 12:11:29;;;;;;;2.67;1.98;;;4.20;99.90;;;;;;5115357;27;20047;-83
2022/04/01 12:13:54;;;;;;;3.10;2.08;;;4.00;99.90;;;;;;5098034;27;20138;-82
2022/04/01 12:16:21;;;;;;;3.25;1.85;;;4.40;99.90;;;;;;5114992;27;20051;-82
2022/04/01 12:18:49;;;;;;;3.90;2.53;;;4.00;99.90;;;;;;5138148;27;20061;-82
2022/04/01 12:21:15;;;;;;;1.88;1.60;;;4.10;99.90;;;;;;5083660;27;20051;-82
2022/04/01 12:23:44;;;;;;;3.00;1.95;;;4.60;99.90;;;;;;5081554;27;20047;-82
2022/04/01 12:26:09;;;;;;;2.17;1.90;;;4.50;99.90;;;;;;5114710;27;20105;-82
2022/04/01 12:28:37;;;;;;;4.30;2.13;;;3.90;99.90;;;;;;5097525;27;20487;-83
2022/04/01 12:31:03;;;;;;;2.55;1.85;;;4.10;99.90;;;;;;5097460;27;20061;-83
2022/04/01 12:33:33;;;;;;;3.03;1.63;;;4.30;99.90;;;;;;5114428;27;20047;-82
2022/04/01 12:36:06;;;;;;;4.68;2.33;;;4.40;99.90;;;;;;5097880;27;20062;-83
2022/04/01 12:38:35;;;;;;;4.43;3.13;;;4.30;99.90;;;;;;5096917;27;20486;-83
2022/04/01 12:41:03;;;;;;;2.60;2.40;;;4.60;99.90;;;;;;5097896;27;20367;-82
2022/04/01 12:43:46;;;;;;;4.20;2.55;;;4.60;99.90;;;;;;5114556;27;20659;-83
2022/04/01 12:46:15;;;;;;;1.75;1.65;;;4.70;99.90;;;;;;5097096;27;20066;-83
2022/04/01 12:48:45;;;;;;;4.38;1.92;;;4.90;99.90;;;;;;5096517;27;20505;-83
2022/04/01 12:51:16;;;;;;;3.13;2.05;;;5.30;99.90;;;;;;5113494;27;20062;-83
2022/04/01 12:54:12;;;;;;;3.78;2.10;;;4.80;99.90;;;;;;5096856;27;20506;-82
2022/04/01 12:56:42;;;;;;;5.63;2.25;;;4.90;99.90;;;;;;5092397;27;20058;-83
2022/04/01 12:59:11;;;;;;;1.90;1.60;;;5.00;99.90;;;;;;5113366;27;20475;-82
2022/04/01 13:01:38;;;;;;;3.92;2.03;;;5.60;99.90;;;;;;5112995;27;20047;-83
2022/04/01 13:04:05;;;;;;;4.80;2.63;;;5.50;99.90;;;;;;5113952;27;20096;-82
2022/04/01 13:06:30;;;;;;;2.78;2.03;;;4.90;99.90;;;;;;5096593;27;20153;-83
2022/04/01 13:09:07;;;;;;;1.65;1.38;;;5.50;99.90;;;;;;5095938;27;20122;-82
2022/04/01 13:11:37;;;;;;;2.50;1.80;;;5.40;99.90;;;;;;5131610;27;20050;-82
2022/04/01 13:14:22;;;;;;;1.83;1.30;;;5.20;99.90;;;;;;5113263;27;20051;-82
2022/04/01 13:16:49;;;;;;;4.13;2.17;;;5.70;99.90;;;;;;5115726;27;20047;-81
2022/04/01 13:19:32;;;;;;;3.88;2.22;;;5.70;99.90;;;;;;5096160;27;20264;-81
2022/04/01 13:22:03;;;;;;;2.67;1.70;;;5.70;99.90;;;;;;5112588;27;20051;-82
2022/04/01 13:24:42;;;;;;;4.68;1.70;;;5.80;99.90;;;;;;5093755;27;20065;-84